createdAt,value
2018-06-16T00:01:23.480Z,16.80
2018-06-16T00:03:52.832Z,16.30
2018-06-16T00:06:22.075Z,15.70
2018-06-16T00:08:51.320Z,17.43
2018-06-16T00:11:20.500Z,35.43
2018-06-16T00:13:49.750Z,15.93
2018-06-16T00:16:19.038Z,16.30
2018-06-16T00:18:48.292Z,16.83
2018-06-16T00:21:17.613Z,17.17
2018-06-16T00:23:46.869Z,18.93
2018-06-16T00:26:16.052Z,18.60
2018-06-16T00:28:45.313Z,18.03
2018-06-16T00:31:14.621Z,18.23
2018-06-16T00:33:44.020Z,18.27
2018-06-16T00:36:13.248Z,17.17
2018-06-16T00:38:42.635Z,15.87
2018-06-16T00:41:12.018Z,22.77
2018-06-16T00:43:41.275Z,18.33
2018-06-16T00:46:10.268Z,19.17
2018-06-16T00:48:39.231Z,19.17
2018-06-16T00:51:08.334Z,23.30
2018-06-16T00:53:37.416Z,23.50
2018-06-16T00:56:06.692Z,24.77
2018-06-16T00:58:35.851Z,25.17
2018-06-16T01:01:04.867Z,25.63
2018-06-16T01:03:33.923Z,23.83
2018-06-16T01:06:02.978Z,24.10
2018-06-16T01:08:32.425Z,24.43
2018-06-16T01:11:01.414Z,25.33
2018-06-16T01:13:30.765Z,26.00
2018-06-16T01:15:59.769Z,25.93
2018-06-16T01:18:28.880Z,25.33
2018-06-16T01:20:58.350Z,23.93
2018-06-16T01:23:27.420Z,24.13
2018-06-16T01:25:56.230Z,26.27
2018-06-16T01:28:25.215Z,24.10
2018-06-16T01:30:54.184Z,22.73
2018-06-16T01:33:23.155Z,26.97
2018-06-16T01:35:52.207Z,24.73
2018-06-16T01:38:21.397Z,24.17
2018-06-16T01:40:50.428Z,34.10
2018-06-16T01:43:19.407Z,26.10
2018-06-16T01:45:48.385Z,25.47
2018-06-16T01:48:17.632Z,25.13
2018-06-16T01:50:46.855Z,24.77
2018-06-16T01:53:16.250Z,25.63
2018-06-16T01:55:45.585Z,25.83
2018-06-16T01:58:14.840Z,46.67
2018-06-16T02:00:44.144Z,23.20
2018-06-16T02:03:13.308Z,24.10
2018-06-16T02:05:42.704Z,24.73
2018-06-16T02:08:11.920Z,24.43
2018-06-16T02:10:40.938Z,24.47
2018-06-16T02:13:09.965Z,23.50
2018-06-16T02:15:38.951Z,25.00
2018-06-16T02:18:08.210Z,22.37
2018-06-16T02:20:37.215Z,22.33
2018-06-16T02:23:06.252Z,23.17
2018-06-16T02:25:35.299Z,25.07
2018-06-16T02:28:04.473Z,24.13
2018-06-16T02:30:33.524Z,24.30
2018-06-16T02:33:02.589Z,25.00
2018-06-16T02:35:32.154Z,25.20
2018-06-16T02:38:01.200Z,25.20
2018-06-16T02:40:30.265Z,25.40
2018-06-16T02:42:59.310Z,24.97
2018-06-16T02:45:28.452Z,24.60
2018-06-16T02:47:57.523Z,25.73
2018-06-16T02:50:26.602Z,24.63
2018-06-16T02:52:55.515Z,22.17
2018-06-16T02:55:24.501Z,22.47
2018-06-16T02:57:53.533Z,21.37
2018-06-16T03:00:22.589Z,22.20
2018-06-16T03:02:51.622Z,22.50
2018-06-16T03:05:20.686Z,23.43
2018-06-16T03:07:49.717Z,21.50
2018-06-16T03:10:18.818Z,21.73
2018-06-16T03:12:47.846Z,22.73
2018-06-16T03:15:16.876Z,21.70
2018-06-16T03:17:46.180Z,21.40
2018-06-16T03:20:15.373Z,22.17
2018-06-16T03:22:44.360Z,22.03
2018-06-16T03:25:13.377Z,20.77
2018-06-16T03:27:42.399Z,19.83
2018-06-16T03:30:11.355Z,20.03
2018-06-16T03:32:40.381Z,20.67
2018-06-16T03:35:09.417Z,20.20
2018-06-16T03:37:38.385Z,19.83
2018-06-16T03:40:07.541Z,19.90
2018-06-16T03:42:36.535Z,19.00
2018-06-16T03:45:05.732Z,19.40
2018-06-16T03:47:34.708Z,20.27
2018-06-16T03:50:03.817Z,18.87
2018-06-16T03:52:32.780Z,18.30
2018-06-16T03:55:01.745Z,18.47
2018-06-16T03:57:30.728Z,17.60
2018-06-16T03:59:59.747Z,18.47
2018-06-16T04:02:28.784Z,17.77
2018-06-16T04:04:57.948Z,17.63
2018-06-16T04:07:27.084Z,18.03
2018-06-16T04:09:56.092Z,18.20
2018-06-16T04:12:25.056Z,18.53
2018-06-16T04:14:54.033Z,19.30
2018-06-16T04:17:22.997Z,18.93
2018-06-16T04:19:52.997Z,17.97
2018-06-16T04:22:22.524Z,17.63
2018-06-16T04:24:51.764Z,16.70
2018-06-16T04:27:20.720Z,16.93
2018-06-16T04:29:49.707Z,17.90
2018-06-16T04:32:18.821Z,17.60
2018-06-16T04:34:47.866Z,17.07
2018-06-16T04:37:16.787Z,16.93
2018-06-16T04:39:45.777Z,16.80
2018-06-16T04:42:14.755Z,16.87
2018-06-16T04:44:43.796Z,16.57
2018-06-16T04:47:12.815Z,16.63
2018-06-16T04:49:41.837Z,16.67
2018-06-16T04:52:10.805Z,16.87
2018-06-16T04:54:39.783Z,15.70
2018-06-16T04:57:08.773Z,18.63
2018-06-16T04:59:37.794Z,18.00
2018-06-16T05:02:06.844Z,17.40
2018-06-16T05:04:35.804Z,17.83
2018-06-16T05:07:04.864Z,15.63
2018-06-16T05:09:34.102Z,15.40
2018-06-16T05:12:03.155Z,14.70
2018-06-16T05:14:32.121Z,14.57
2018-06-16T05:17:01.179Z,13.53
2018-06-16T05:19:30.257Z,13.83
2018-06-16T05:21:59.359Z,14.07
2018-06-16T05:24:28.372Z,13.57
2018-06-16T05:26:57.412Z,13.37
2018-06-16T05:29:26.583Z,13.67
2018-06-16T05:31:55.755Z,13.90
2018-06-16T05:34:24.802Z,12.17
2018-06-16T05:36:54.050Z,13.53
2018-06-16T05:39:23.087Z,13.07
2018-06-16T05:41:52.105Z,13.27
2018-06-16T05:44:21.144Z,11.93
2018-06-16T05:46:50.115Z,11.73
2018-06-16T05:49:19.148Z,11.77
2018-06-16T05:51:48.127Z,12.80
2018-06-16T05:54:17.148Z,10.23
2018-06-16T05:56:46.131Z,11.30
2018-06-16T05:59:15.093Z,9.27
2018-06-16T06:01:44.074Z,10.17
2018-06-16T06:04:13.031Z,10.13
2018-06-16T06:06:42.005Z,10.03
2018-06-16T06:09:11.718Z,10.17
2018-06-16T06:11:41.158Z,10.07
2018-06-16T06:14:09.895Z,8.97
2018-06-16T06:16:39.917Z,8.33
2018-06-16T06:19:09.322Z,9.37
2018-06-16T06:21:38.507Z,10.17
2018-06-16T06:24:07.688Z,9.90
2018-06-16T06:26:36.924Z,8.37
2018-06-16T06:29:05.961Z,7.70
2018-06-16T06:31:34.935Z,8.27
2018-06-16T06:34:04.069Z,8.03
2018-06-16T06:36:33.051Z,9.80
2018-06-16T06:39:02.022Z,7.53
2018-06-16T06:41:31.056Z,7.80
2018-06-16T06:44:00.892Z,7.60
2018-06-16T06:46:29.876Z,7.10
2018-06-16T06:48:58.843Z,7.83
2018-06-16T06:51:28.855Z,7.67
2018-06-16T06:53:58.181Z,7.97
2018-06-16T06:56:27.465Z,7.43
2018-06-16T06:58:56.644Z,6.93
2018-06-16T07:01:25.618Z,8.53
2018-06-16T07:03:54.665Z,9.20
2018-06-16T07:06:23.627Z,8.90
2018-06-16T07:08:52.832Z,7.90
2018-06-16T07:11:21.997Z,8.50
2018-06-16T07:13:50.956Z,7.60
2018-06-16T07:16:20.196Z,8.13
2018-06-16T07:18:49.339Z,7.47
2018-06-16T07:21:18.620Z,6.80
2018-06-16T07:23:47.919Z,6.07
2018-06-16T07:26:17.252Z,6.67
2018-06-16T07:28:46.569Z,6.83
2018-06-16T07:31:15.903Z,6.50
2018-06-16T07:33:45.229Z,6.73
2018-06-16T07:36:14.554Z,7.87
2018-06-16T07:38:43.872Z,7.57
2018-06-16T07:41:13.093Z,7.90
2018-06-16T07:43:42.363Z,8.53
2018-06-16T07:46:11.577Z,10.60
2018-06-16T07:48:40.912Z,9.67
2018-06-16T07:51:10.129Z,11.63
2018-06-16T07:53:39.517Z,11.30
2018-06-16T07:56:08.832Z,11.13
2018-06-16T07:58:38.337Z,11.30
2018-06-16T08:01:07.576Z,10.13
2018-06-16T08:03:36.877Z,11.07
2018-06-16T08:06:06.110Z,11.60
2018-06-16T08:08:35.355Z,13.33
2018-06-16T08:11:04.587Z,15.03
2018-06-16T08:13:33.800Z,15.57
2018-06-16T08:16:02.961Z,11.17
2018-06-16T08:18:32.076Z,10.20
2018-06-16T08:21:01.312Z,10.83
2018-06-16T08:23:30.512Z,11.23
2018-06-16T08:25:59.825Z,13.37
2018-06-16T08:28:29.198Z,14.50
2018-06-16T08:30:58.641Z,13.33
2018-06-16T08:33:27.760Z,13.57
2018-06-16T08:35:57.403Z,11.27
2018-06-16T08:38:26.596Z,12.07
2018-06-16T08:40:55.771Z,12.80
2018-06-16T08:43:25.059Z,11.03
2018-06-16T08:45:54.288Z,10.27
2018-06-16T08:48:23.493Z,8.23
2018-06-16T08:50:52.710Z,7.90
2018-06-16T08:53:21.855Z,6.63
2018-06-16T08:55:51.129Z,6.43
2018-06-16T08:58:20.384Z,6.23
2018-06-16T09:00:49.678Z,7.00
2018-06-16T09:03:18.983Z,6.90
2018-06-16T09:05:48.277Z,7.13
2018-06-16T09:08:17.561Z,7.20
2018-06-16T09:10:46.782Z,7.13
2018-06-16T09:13:16.029Z,7.50
2018-06-16T09:15:45.268Z,7.73
2018-06-16T09:18:14.584Z,8.50
2018-06-16T09:20:43.965Z,13.83
2018-06-16T09:23:13.493Z,9.63
2018-06-16T09:25:42.748Z,8.67
2018-06-16T09:28:11.989Z,8.60
2018-06-16T09:30:41.251Z,9.00
2018-06-16T09:33:10.537Z,8.47
2018-06-16T09:35:39.796Z,8.13
2018-06-16T09:38:09.013Z,8.87
2018-06-16T09:40:38.368Z,8.80
2018-06-16T09:43:07.802Z,8.77
2018-06-16T09:45:37.038Z,9.23
2018-06-16T09:48:06.336Z,8.77
2018-06-16T09:50:35.583Z,8.60
2018-06-16T09:53:04.876Z,8.57
2018-06-16T09:55:34.139Z,8.17
2018-06-16T09:58:03.354Z,7.97
2018-06-16T10:00:37.593Z,8.53
2018-06-16T10:03:06.766Z,8.20
2018-06-16T10:05:35.984Z,8.20
2018-06-16T10:08:05.172Z,8.47
2018-06-16T10:10:34.456Z,8.20
2018-06-16T10:13:03.640Z,8.53
2018-06-16T10:15:32.946Z,8.87
2018-06-16T10:18:02.193Z,8.63
2018-06-16T10:20:31.712Z,8.30
2018-06-16T10:23:01.113Z,9.00
2018-06-16T10:25:30.261Z,8.70
2018-06-16T10:27:59.636Z,8.20
2018-06-16T10:30:28.976Z,8.97
2018-06-16T10:32:58.336Z,7.97
2018-06-16T10:35:27.668Z,8.17
2018-06-16T10:37:57.151Z,9.20
2018-06-16T10:40:26.641Z,8.63
2018-06-16T10:42:56.004Z,8.20
2018-06-16T10:45:25.402Z,8.50
2018-06-16T10:47:54.821Z,8.60
2018-06-16T10:50:24.092Z,8.43
2018-06-16T10:52:53.438Z,7.73
2018-06-16T10:55:22.645Z,8.10
2018-06-16T10:57:51.843Z,8.10
2018-06-16T11:00:21.172Z,7.50
2018-06-16T11:02:50.316Z,8.03
2018-06-16T11:05:19.668Z,7.93
2018-06-16T11:07:49.071Z,8.57
2018-06-16T11:10:18.524Z,8.53
2018-06-16T11:12:47.900Z,8.93
2018-06-16T11:15:17.268Z,8.37
2018-06-16T11:17:46.716Z,8.93
2018-06-16T11:20:16.112Z,8.90
2018-06-16T11:22:45.649Z,9.37
2018-06-16T11:25:15.015Z,8.87
2018-06-16T11:27:44.241Z,8.73
2018-06-16T11:30:13.319Z,9.30
2018-06-16T11:32:42.354Z,9.70
2018-06-16T11:35:11.676Z,9.37
2018-06-16T11:37:40.936Z,9.37
2018-06-16T11:40:10.270Z,9.30
2018-06-16T11:42:39.481Z,9.87
2018-06-16T11:45:08.786Z,9.13
2018-06-16T11:47:38.124Z,9.53
2018-06-16T11:50:07.876Z,10.17
2018-06-16T11:52:37.079Z,10.20
2018-06-16T11:55:06.540Z,10.30
2018-06-16T11:57:35.781Z,9.97
2018-06-16T12:00:04.972Z,10.97
2018-06-16T12:02:34.240Z,9.93
2018-06-16T12:05:03.338Z,10.07
2018-06-16T12:07:32.608Z,12.03
2018-06-16T12:10:01.875Z,11.80
2018-06-16T12:12:31.155Z,11.47
2018-06-16T12:15:00.513Z,10.73
2018-06-16T12:17:29.868Z,12.03
2018-06-16T12:19:59.243Z,10.03
2018-06-16T12:22:28.451Z,11.27
2018-06-16T12:24:57.915Z,12.77
2018-06-16T12:27:27.203Z,9.87
2018-06-16T12:29:56.436Z,11.40
2018-06-16T12:32:25.745Z,12.23
2018-06-16T12:34:55.141Z,11.63
2018-06-16T12:37:24.430Z,13.93
2018-06-16T12:39:53.937Z,12.23
2018-06-16T12:42:23.512Z,13.53
2018-06-16T12:44:52.776Z,13.10
2018-06-16T12:47:22.081Z,14.40
2018-06-16T12:49:51.385Z,16.03
2018-06-16T12:52:20.652Z,12.13
2018-06-16T12:54:49.896Z,10.27
2018-06-16T12:57:19.115Z,9.33
2018-06-16T12:59:48.429Z,7.13
2018-06-16T13:02:17.564Z,7.27
2018-06-16T13:04:46.781Z,4.90
2018-06-16T13:07:16.059Z,5.43
2018-06-16T13:09:45.224Z,6.80
2018-06-16T13:12:14.460Z,7.00
2018-06-16T13:14:43.895Z,6.60
2018-06-16T13:17:13.152Z,5.60
2018-06-16T13:19:42.495Z,5.50
2018-06-16T13:22:11.668Z,5.23
2018-06-16T13:24:41.093Z,5.37
2018-06-16T13:27:10.559Z,6.03
2018-06-16T13:29:39.800Z,6.53
2018-06-16T13:32:09.031Z,6.33
2018-06-16T13:34:38.463Z,16.47
2018-06-16T13:37:07.777Z,8.33
2018-06-16T13:39:36.960Z,57.97
2018-06-16T13:42:06.228Z,6.90
2018-06-16T13:44:35.468Z,5.80
2018-06-16T13:47:04.668Z,5.63
2018-06-16T13:49:33.912Z,5.20
2018-06-16T13:52:03.120Z,5.70
2018-06-16T13:54:32.482Z,5.27
2018-06-16T13:57:01.696Z,5.23
2018-06-16T13:59:30.892Z,6.03
2018-06-16T14:02:00.051Z,5.60
2018-06-16T14:04:29.403Z,5.70
2018-06-16T14:06:58.768Z,5.80
2018-06-16T14:09:28.084Z,6.93
2018-06-16T14:11:57.649Z,5.73
2018-06-16T14:14:26.715Z,4.20
2018-06-16T14:16:56.023Z,5.13
2018-06-16T14:19:25.295Z,5.20
2018-06-16T14:21:54.508Z,5.83
2018-06-16T14:24:23.843Z,6.20
2018-06-16T14:26:53.152Z,5.20
2018-06-16T14:29:22.537Z,5.53
2018-06-16T14:31:51.796Z,5.40
2018-06-16T14:34:21.145Z,4.73
2018-06-16T14:36:50.451Z,6.77
2018-06-16T14:39:19.779Z,7.47
2018-06-16T14:41:49.088Z,7.40
2018-06-16T14:44:18.441Z,6.60
2018-06-16T14:46:47.670Z,8.23
2018-06-16T14:49:17.145Z,7.73
2018-06-16T14:51:46.496Z,8.20
2018-06-16T14:54:15.947Z,6.90
2018-06-16T14:56:45.618Z,7.77
2018-06-16T14:59:14.836Z,8.17
2018-06-16T15:01:44.322Z,8.23
2018-06-16T15:04:13.706Z,10.07
2018-06-16T15:06:43.109Z,8.67
2018-06-16T15:09:12.780Z,9.17
2018-06-16T15:11:42.188Z,9.43
2018-06-16T15:14:11.501Z,9.30
2018-06-16T15:16:40.928Z,8.27
2018-06-16T15:19:10.475Z,8.50
2018-06-16T15:21:39.953Z,10.17
2018-06-16T15:24:09.424Z,7.77
2018-06-16T15:26:38.674Z,7.80
2018-06-16T15:29:08.208Z,8.10
2018-06-16T15:31:37.436Z,8.30
2018-06-16T15:34:06.832Z,8.33
2018-06-16T15:36:35.963Z,9.53
2018-06-16T15:39:07.419Z,8.20
2018-06-16T15:41:36.682Z,8.80
2018-06-16T15:44:05.935Z,8.10
2018-06-16T15:46:35.283Z,11.17
2018-06-16T15:49:04.629Z,8.00
2018-06-16T15:51:33.835Z,7.67
2018-06-16T15:54:02.823Z,6.93
2018-06-16T15:56:32.213Z,7.07
2018-06-16T15:59:01.414Z,7.80
2018-06-16T16:01:30.799Z,8.87
2018-06-16T16:04:00.081Z,7.33
2018-06-16T16:06:29.448Z,6.67
2018-06-16T16:08:58.586Z,6.43
2018-06-16T16:11:27.687Z,6.70
2018-06-16T16:13:56.903Z,7.60
2018-06-16T16:16:26.147Z,7.70
2018-06-16T16:18:55.247Z,6.97
2018-06-16T16:21:24.421Z,7.20
2018-06-16T16:23:53.895Z,7.57
2018-06-16T16:26:23.213Z,6.93
2018-06-16T16:28:52.540Z,6.87
2018-06-16T16:31:21.777Z,6.63
2018-06-16T16:33:50.928Z,6.73
2018-06-16T16:36:20.292Z,5.60
2018-06-16T16:38:49.641Z,5.93
2018-06-16T16:41:18.945Z,5.50
2018-06-16T16:43:48.177Z,5.47
2018-06-16T16:46:17.500Z,5.87
2018-06-16T16:48:46.833Z,5.97
2018-06-16T16:51:16.279Z,6.37
2018-06-16T16:53:45.644Z,6.40
2018-06-16T16:56:14.843Z,6.23
2018-06-16T16:58:43.951Z,7.33
2018-06-16T17:01:13.285Z,5.77
2018-06-16T17:03:42.419Z,6.77
2018-06-16T17:06:11.530Z,6.87
2018-06-16T17:08:40.760Z,7.20
2018-06-16T17:11:10.028Z,6.73
2018-06-16T17:13:39.322Z,7.57
2018-06-16T17:16:08.480Z,7.77
2018-06-16T17:18:37.802Z,7.00
2018-06-16T17:21:07.108Z,7.50
2018-06-16T17:23:36.505Z,7.07
2018-06-16T17:26:05.623Z,6.97
2018-06-16T17:28:34.820Z,9.00
2018-06-16T17:31:04.177Z,9.30
2018-06-16T17:33:33.293Z,10.40
2018-06-16T17:36:02.569Z,10.97
2018-06-16T17:38:31.828Z,11.10
2018-06-16T17:41:01.152Z,10.30
2018-06-16T17:43:30.508Z,10.30
2018-06-16T17:45:59.943Z,8.37
2018-06-16T17:48:29.368Z,7.90
2018-06-16T17:50:58.727Z,7.60
2018-06-16T17:53:27.924Z,7.83
2018-06-16T17:55:57.296Z,7.97
2018-06-16T17:58:26.615Z,7.87
2018-06-16T18:00:55.834Z,7.57
2018-06-16T18:03:25.216Z,8.13
2018-06-16T18:05:54.692Z,8.90
2018-06-16T18:08:23.720Z,7.97
2018-06-16T18:11:00.609Z,8.30
2018-06-16T18:13:30.129Z,8.77
2018-06-16T18:15:59.582Z,9.87
2018-06-16T18:18:29.157Z,10.00
2018-06-16T18:20:58.659Z,9.63
2018-06-16T18:23:28.057Z,11.30
2018-06-16T18:25:57.665Z,11.00
2018-06-16T18:28:27.278Z,10.30
2018-06-16T18:30:56.922Z,9.77
2018-06-16T18:33:26.370Z,9.97
2018-06-16T18:35:56.683Z,11.03
2018-06-16T18:38:26.276Z,9.50
2018-06-16T18:40:55.764Z,10.73
2018-06-16T18:43:25.311Z,10.90
2018-06-16T18:45:54.877Z,10.93
2018-06-16T18:48:24.309Z,12.47
2018-06-16T18:50:54.772Z,11.10
2018-06-16T18:53:24.009Z,10.63
2018-06-16T18:55:54.446Z,11.27
2018-06-16T18:58:24.016Z,12.13
2018-06-16T19:00:54.358Z,11.57
2018-06-16T19:03:23.616Z,11.83
2018-06-16T19:05:53.149Z,12.33
2018-06-16T19:08:22.773Z,14.40
2018-06-16T19:10:52.367Z,11.10
2018-06-16T19:13:21.498Z,14.00
2018-06-16T19:15:50.722Z,14.50
2018-06-16T19:18:19.939Z,13.53
2018-06-16T19:20:49.155Z,14.23
2018-06-16T19:23:18.416Z,15.50
2018-06-16T19:25:51.672Z,14.93
2018-06-16T19:28:20.850Z,13.77
2018-06-16T19:30:50.801Z,13.47
2018-06-16T19:33:20.350Z,14.07
2018-06-16T19:35:49.687Z,14.57
2018-06-16T19:38:18.986Z,14.07
2018-06-16T19:40:48.442Z,14.47
2018-06-16T19:43:17.776Z,14.47
2018-06-16T19:45:47.080Z,15.47
2018-06-16T19:48:16.518Z,15.23
2018-06-16T19:50:45.815Z,16.07
2018-06-16T19:53:14.952Z,15.53
2018-06-16T19:55:43.976Z,14.23
2018-06-16T19:58:13.136Z,15.57
2018-06-16T20:00:42.369Z,14.73
2018-06-16T20:03:11.647Z,15.20
2018-06-16T20:05:40.856Z,15.07
2018-06-16T20:08:09.932Z,15.40
2018-06-16T20:10:38.903Z,14.50
2018-06-16T20:13:07.864Z,15.40
2018-06-16T20:15:36.869Z,14.97
2018-06-16T20:18:05.918Z,14.57
2018-06-16T20:20:35.339Z,13.77
2018-06-16T20:23:04.460Z,13.83
2018-06-16T20:25:33.567Z,11.83
2018-06-16T20:28:02.799Z,11.53
2018-06-16T20:30:31.767Z,11.53
2018-06-16T20:33:00.867Z,11.10
2018-06-16T20:35:29.871Z,11.07
2018-06-16T20:37:58.882Z,12.37
2018-06-16T20:40:27.922Z,11.20
2018-06-16T20:42:56.894Z,10.90
2018-06-16T20:45:25.893Z,11.50
2018-06-16T20:47:54.879Z,11.50
2018-06-16T20:50:23.902Z,11.20
2018-06-16T20:52:52.939Z,11.83
2018-06-16T20:55:21.931Z,12.30
2018-06-16T20:57:50.932Z,11.97
2018-06-16T21:00:19.953Z,12.83
2018-06-16T21:02:48.928Z,11.73
2018-06-16T21:05:17.920Z,11.70
2018-06-16T21:07:46.887Z,11.73
2018-06-16T21:10:15.890Z,11.07
2018-06-16T21:12:44.847Z,11.27
2018-06-16T21:15:13.969Z,11.00
2018-06-16T21:17:43.291Z,11.67
2018-06-16T21:20:12.297Z,11.47
2018-06-16T21:22:41.302Z,11.93
2018-06-16T21:25:10.286Z,11.27
2018-06-16T21:27:39.360Z,12.10
2018-06-16T21:30:08.330Z,11.83
2018-06-16T21:32:37.332Z,12.43
2018-06-16T21:35:06.412Z,13.33
2018-06-16T21:37:35.628Z,12.20
2018-06-16T21:40:04.868Z,13.20
2018-06-16T21:42:34.483Z,12.97
2018-06-16T21:45:03.904Z,12.47
2018-06-16T21:47:33.219Z,13.23
2018-06-16T21:50:02.558Z,13.10
2018-06-16T21:52:31.784Z,13.53
2018-06-16T21:55:00.982Z,12.20
2018-06-16T21:57:30.134Z,11.17
2018-06-16T21:59:59.553Z,11.57
2018-06-16T22:02:28.852Z,10.30
2018-06-16T22:04:58.190Z,9.93
2018-06-16T22:07:27.188Z,11.10
2018-06-16T22:09:56.225Z,10.03
2018-06-16T22:12:25.231Z,10.50
2018-06-16T22:14:54.340Z,10.33
2018-06-16T22:17:23.332Z,11.33
2018-06-16T22:19:52.296Z,12.40
2018-06-16T22:22:21.287Z,13.00
2018-06-16T22:24:50.271Z,11.77
2018-06-16T22:27:19.275Z,11.73
2018-06-16T22:29:48.240Z,12.43
2018-06-16T22:32:17.335Z,11.73
2018-06-16T22:34:46.572Z,9.30
2018-06-16T22:37:15.546Z,8.87
2018-06-16T22:39:44.532Z,8.03
2018-06-16T22:42:13.559Z,7.60
2018-06-16T22:44:42.572Z,8.23
2018-06-16T22:47:11.527Z,7.27
2018-06-16T22:49:40.521Z,7.73
2018-06-16T22:52:09.463Z,7.83
2018-06-16T22:54:38.479Z,7.77
2018-06-16T22:57:07.426Z,8.60
2018-06-16T22:59:36.461Z,8.73
2018-06-16T23:02:05.491Z,8.33
2018-06-16T23:04:34.475Z,8.13
2018-06-16T23:07:03.566Z,7.20
2018-06-16T23:09:32.589Z,6.97
2018-06-16T23:12:01.567Z,6.67
2018-06-16T23:14:30.573Z,6.93
2018-06-16T23:16:59.575Z,8.40
2018-06-16T23:19:28.643Z,8.30
2018-06-16T23:21:57.728Z,8.43
2018-06-16T23:24:26.734Z,8.70
2018-06-16T23:26:55.749Z,8.67
2018-06-16T23:29:24.713Z,8.57
2018-06-16T23:31:53.692Z,9.20
2018-06-16T23:34:22.709Z,8.87
2018-06-16T23:36:51.706Z,8.90
2018-06-16T23:39:20.675Z,9.13
2018-06-16T23:41:49.658Z,8.23
2018-06-16T23:44:18.623Z,9.27
2018-06-16T23:46:47.554Z,9.50
2018-06-16T23:49:16.675Z,8.87
2018-06-16T23:51:45.671Z,7.60
2018-06-16T23:54:14.628Z,7.60
2018-06-16T23:56:43.643Z,8.07
2018-06-16T23:59:12.607Z,9.17
